createdAt,value
2019-03-16T00:02:12.908Z,3.27
2019-03-16T00:04:42.229Z,3.77
2019-03-16T00:07:11.543Z,3.13
2019-03-16T00:09:40.868Z,2.97
2019-03-16T00:12:10.171Z,2.83
2019-03-16T00:14:39.549Z,3.37
2019-03-16T00:17:08.906Z,3.10
2019-03-16T00:19:38.228Z,4.50
2019-03-16T00:22:07.528Z,2.87
2019-03-16T00:24:36.833Z,2.17
2019-03-16T00:27:06.507Z,3.40
2019-03-16T00:29:36.219Z,2.90
2019-03-16T00:32:13.383Z,3.43
2019-03-16T00:34:36.877Z,3.73
2019-03-16T00:37:06.161Z,3.90
2019-03-16T00:39:35.451Z,3.93
2019-03-16T00:42:05.144Z,3.33
2019-03-16T00:44:34.434Z,3.73
2019-03-16T00:47:03.752Z,3.07
2019-03-16T00:49:33.019Z,3.83
2019-03-16T00:52:02.344Z,3.87
2019-03-16T00:54:31.641Z,4.20
2019-03-16T00:57:01.190Z,4.10
2019-03-16T00:59:30.480Z,3.87
2019-03-16T01:01:59.785Z,3.20
2019-03-16T01:04:29.135Z,3.17
2019-03-16T01:06:58.407Z,3.50
2019-03-16T01:09:28.158Z,2.87
2019-03-16T01:11:57.433Z,2.90
2019-03-16T01:14:26.752Z,3.40
2019-03-16T01:16:56.422Z,3.60
2019-03-16T01:19:25.734Z,3.90
2019-03-16T01:21:55.023Z,4.13
2019-03-16T01:24:24.313Z,3.97
2019-03-16T01:26:53.611Z,2.90
2019-03-16T01:29:23.026Z,2.73
2019-03-16T01:31:52.306Z,3.53
2019-03-16T01:34:21.736Z,2.90
2019-03-16T01:36:51.020Z,4.10
2019-03-16T01:39:20.341Z,2.60
2019-03-16T01:41:49.655Z,3.10
2019-03-16T01:44:19.044Z,4.17
2019-03-16T01:46:48.346Z,3.17
2019-03-16T01:49:17.660Z,2.43
2019-03-16T01:51:46.958Z,2.77
2019-03-16T01:54:16.355Z,5.40
2019-03-16T01:56:45.716Z,3.70
2019-03-16T01:59:14.998Z,5.00
2019-03-16T02:01:44.294Z,3.30
2019-03-16T02:04:13.564Z,3.33
2019-03-16T02:06:42.821Z,3.30
2019-03-16T02:09:12.151Z,3.10
2019-03-16T02:11:41.468Z,2.80
2019-03-16T02:14:10.744Z,3.33
2019-03-16T02:16:40.313Z,3.67
2019-03-16T02:19:09.564Z,3.00
2019-03-16T02:21:38.968Z,2.83
2019-03-16T02:24:08.325Z,3.00
2019-03-16T02:26:37.618Z,2.70
2019-03-16T02:29:06.983Z,2.87
2019-03-16T02:31:36.274Z,2.60
2019-03-16T02:34:05.709Z,2.20
2019-03-16T02:36:35.017Z,2.00
2019-03-16T02:39:05.849Z,3.50
2019-03-16T02:41:35.535Z,2.27
2019-03-16T02:44:04.860Z,2.63
2019-03-16T02:46:34.240Z,2.20
2019-03-16T02:49:03.533Z,2.60
2019-03-16T02:51:32.827Z,2.20
2019-03-16T02:54:02.128Z,1.57
2019-03-16T02:56:31.409Z,2.13
2019-03-16T02:59:00.716Z,1.57
2019-03-16T03:01:30.061Z,1.33
2019-03-16T03:03:59.731Z,1.20
2019-03-16T03:06:29.125Z,1.40
2019-03-16T03:08:58.446Z,1.80
2019-03-16T03:11:27.729Z,1.40
2019-03-16T03:13:57.033Z,1.63
2019-03-16T03:16:26.345Z,1.20
2019-03-16T03:18:55.662Z,1.40
2019-03-16T03:21:25.396Z,2.00
2019-03-16T03:23:54.732Z,1.47
2019-03-16T03:26:24.019Z,1.30
2019-03-16T03:28:53.309Z,1.60
2019-03-16T03:31:22.992Z,1.43
2019-03-16T03:34:02.062Z,1.10
2019-03-16T03:36:23.415Z,1.33
2019-03-16T03:38:52.695Z,1.70
2019-03-16T03:41:22.046Z,1.40
2019-03-16T03:43:51.337Z,1.60
2019-03-16T03:46:20.674Z,1.37
2019-03-16T03:48:49.960Z,1.37
2019-03-16T03:51:19.271Z,1.40
2019-03-16T03:53:48.571Z,1.27
2019-03-16T03:56:17.860Z,1.20
2019-03-16T03:58:47.150Z,1.23
2019-03-16T04:01:16.504Z,1.33
2019-03-16T04:03:45.845Z,1.70
2019-03-16T04:06:15.155Z,1.40
2019-03-16T04:08:44.466Z,1.50
2019-03-16T04:11:14.134Z,2.00
2019-03-16T04:13:43.398Z,1.60
2019-03-16T04:16:13.058Z,2.07
2019-03-16T04:18:42.349Z,1.63
2019-03-16T04:21:11.862Z,1.53
2019-03-16T04:23:41.561Z,1.80
2019-03-16T04:26:10.880Z,1.80
2019-03-16T04:28:40.206Z,1.60
2019-03-16T04:31:09.544Z,2.23
2019-03-16T04:33:38.897Z,2.20
2019-03-16T04:36:08.147Z,1.57
2019-03-16T04:38:37.511Z,2.00
2019-03-16T04:41:06.803Z,2.07
2019-03-16T04:43:36.141Z,1.93
2019-03-16T04:46:05.467Z,1.83
2019-03-16T04:48:35.085Z,2.00
2019-03-16T04:51:04.398Z,2.40
2019-03-16T04:53:33.652Z,1.93
2019-03-16T04:56:02.982Z,2.10
2019-03-16T04:58:32.603Z,1.90
2019-03-16T05:01:01.897Z,3.23
2019-03-16T05:03:31.189Z,1.83
2019-03-16T05:06:00.466Z,2.47
2019-03-16T05:08:29.761Z,2.00
2019-03-16T05:10:59.050Z,2.77
2019-03-16T05:13:28.455Z,2.37
2019-03-16T05:15:57.718Z,2.27
2019-03-16T05:18:27.030Z,2.33
2019-03-16T05:20:56.311Z,2.20
2019-03-16T05:23:25.601Z,2.40
2019-03-16T05:25:54.897Z,2.60
2019-03-16T05:28:24.204Z,2.90
2019-03-16T05:30:53.518Z,2.70
2019-03-16T05:33:22.873Z,3.40
2019-03-16T05:35:52.213Z,3.43
2019-03-16T05:38:21.529Z,3.83
2019-03-16T05:40:50.987Z,3.80
2019-03-16T05:43:20.299Z,2.97
2019-03-16T05:45:49.638Z,4.10
2019-03-16T05:48:18.924Z,3.07
2019-03-16T05:50:48.214Z,3.47
2019-03-16T05:53:17.491Z,3.80
2019-03-16T05:55:46.793Z,3.20
2019-03-16T05:58:16.070Z,2.80
2019-03-16T06:00:45.416Z,4.83
2019-03-16T06:03:15.012Z,2.90
2019-03-16T06:05:44.306Z,3.10
2019-03-16T06:08:13.600Z,2.97
2019-03-16T06:10:43.227Z,2.87
2019-03-16T06:13:12.511Z,2.80
2019-03-16T06:15:41.820Z,3.30
2019-03-16T06:18:13.168Z,2.70
2019-03-16T06:20:42.118Z,2.70
2019-03-16T06:23:11.481Z,2.70
2019-03-16T06:25:40.768Z,3.20
2019-03-16T06:28:10.316Z,3.43
2019-03-16T06:30:39.617Z,3.17
2019-03-16T06:33:08.953Z,2.80
2019-03-16T06:35:38.232Z,3.53
2019-03-16T06:38:07.580Z,4.17
2019-03-16T06:40:36.891Z,3.10
2019-03-16T06:43:06.177Z,3.40
2019-03-16T06:45:35.917Z,4.83
2019-03-16T06:48:05.237Z,4.53
2019-03-16T06:50:34.595Z,3.00
2019-03-16T06:53:03.879Z,3.53
2019-03-16T06:55:33.272Z,2.67
2019-03-16T06:58:02.694Z,2.77
2019-03-16T07:00:32.323Z,2.73
2019-03-16T07:03:01.647Z,2.87
2019-03-16T07:05:38.434Z,3.33
2019-03-16T07:08:02.252Z,2.80
2019-03-16T07:10:31.708Z,4.50
2019-03-16T07:13:01.025Z,3.80
2019-03-16T07:15:30.358Z,5.97
2019-03-16T07:17:59.711Z,9.10
2019-03-16T07:20:29.021Z,4.83
2019-03-16T07:22:58.409Z,4.83
2019-03-16T07:25:27.703Z,6.80
2019-03-16T07:27:56.919Z,6.30
2019-03-16T07:30:26.242Z,5.67
2019-03-16T07:32:55.539Z,5.90
2019-03-16T07:35:24.838Z,5.07
2019-03-16T07:37:54.135Z,4.87
2019-03-16T07:40:23.901Z,5.17
2019-03-16T07:42:53.205Z,5.23
2019-03-16T07:45:22.508Z,4.10
2019-03-16T07:47:51.799Z,4.57
2019-03-16T07:50:21.117Z,3.90
2019-03-16T07:52:50.636Z,4.57
2019-03-16T07:55:19.932Z,4.43
2019-03-16T07:57:49.253Z,4.80
2019-03-16T08:00:18.512Z,3.90
2019-03-16T08:02:47.909Z,4.17
2019-03-16T08:05:19.229Z,3.87
2019-03-16T08:07:48.363Z,4.50
2019-03-16T08:10:17.660Z,4.50
2019-03-16T08:12:47.258Z,4.17
2019-03-16T08:15:16.591Z,4.57
2019-03-16T08:17:45.874Z,4.67
2019-03-16T08:20:15.444Z,3.90
2019-03-16T08:22:44.757Z,5.40
2019-03-16T08:25:14.081Z,4.00
2019-03-16T08:27:53.389Z,4.23
2019-03-16T08:30:14.420Z,4.37
2019-03-16T08:32:44.050Z,4.23
2019-03-16T08:35:13.334Z,4.30
2019-03-16T08:37:42.624Z,3.80
2019-03-16T08:40:11.906Z,3.80
2019-03-16T08:42:41.188Z,3.27
2019-03-16T08:45:10.482Z,3.30
2019-03-16T08:47:39.798Z,2.60
2019-03-16T08:50:10.172Z,3.30
2019-03-16T08:52:39.568Z,3.23
2019-03-16T08:55:08.856Z,3.10
2019-03-16T08:57:38.157Z,3.00
2019-03-16T09:00:08.286Z,2.90
2019-03-16T09:02:37.735Z,2.63
2019-03-16T09:05:07.116Z,2.90
2019-03-16T09:07:37.501Z,3.20
2019-03-16T09:10:07.094Z,3.80
2019-03-16T09:12:36.357Z,2.83
2019-03-16T09:15:07.136Z,2.60
2019-03-16T09:17:36.460Z,3.10
2019-03-16T09:20:06.536Z,2.33
2019-03-16T09:22:35.817Z,1.97
2019-03-16T09:25:05.447Z,2.40
2019-03-16T09:27:34.826Z,2.77
2019-03-16T09:30:05.562Z,2.00
2019-03-16T09:32:34.841Z,2.40
2019-03-16T09:35:04.828Z,2.67
2019-03-16T09:37:34.140Z,2.60
2019-03-16T09:40:03.524Z,2.23
2019-03-16T09:42:32.850Z,1.13
2019-03-16T09:45:02.150Z,1.37
2019-03-16T09:47:31.448Z,0.80
2019-03-16T09:50:00.743Z,1.50
2019-03-16T09:52:30.108Z,0.77
2019-03-16T09:54:59.745Z,0.73
2019-03-16T09:57:29.097Z,1.53
2019-03-16T09:59:58.432Z,1.43
2019-03-16T10:02:27.732Z,1.37
2019-03-16T10:04:57.064Z,1.07
2019-03-16T10:07:26.385Z,1.10
2019-03-16T10:09:55.830Z,1.20
2019-03-16T10:12:25.093Z,1.63
2019-03-16T10:14:54.405Z,1.00
2019-03-16T10:17:23.976Z,1.10
2019-03-16T10:19:53.260Z,0.93
2019-03-16T10:22:22.575Z,1.17
2019-03-16T10:24:51.865Z,1.47
2019-03-16T10:27:21.219Z,1.10
2019-03-16T10:29:50.898Z,1.33
2019-03-16T10:32:20.207Z,1.20
2019-03-16T10:34:49.977Z,0.97
2019-03-16T10:37:19.272Z,1.33
2019-03-16T10:39:48.601Z,1.17
2019-03-16T10:42:17.952Z,1.13
2019-03-16T10:44:47.224Z,1.27
2019-03-16T10:47:16.529Z,1.70
2019-03-16T10:49:45.840Z,1.77
2019-03-16T10:52:15.912Z,1.20
2019-03-16T10:54:45.184Z,1.30
2019-03-16T10:57:14.494Z,0.80
2019-03-16T10:59:43.754Z,1.50
2019-03-16T11:02:13.051Z,0.60
2019-03-16T11:04:42.315Z,0.73
2019-03-16T11:07:11.628Z,0.90
2019-03-16T11:09:40.904Z,1.07
2019-03-16T11:12:10.154Z,0.63
2019-03-16T11:14:41.167Z,1.00
2019-03-16T11:17:10.473Z,1.63
2019-03-16T11:19:39.761Z,1.10
2019-03-16T11:22:09.027Z,1.10
2019-03-16T11:24:38.348Z,0.90
2019-03-16T11:27:07.676Z,1.20
2019-03-16T11:29:36.984Z,1.30
2019-03-16T11:32:06.289Z,1.27
2019-03-16T11:34:35.578Z,1.30
2019-03-16T11:37:04.844Z,1.30
2019-03-16T11:39:34.136Z,1.20
2019-03-16T11:42:03.433Z,1.00
2019-03-16T11:44:32.718Z,1.07
2019-03-16T11:47:02.040Z,1.20
2019-03-16T11:49:31.361Z,1.47
2019-03-16T11:52:00.648Z,1.20
2019-03-16T11:54:30.412Z,1.47
2019-03-16T11:56:59.736Z,1.27
2019-03-16T11:59:29.397Z,1.57
2019-03-16T12:02:05.192Z,1.23
2019-03-16T12:04:29.747Z,2.20
2019-03-16T12:06:59.062Z,2.20
2019-03-16T12:09:28.549Z,2.60
2019-03-16T12:11:57.852Z,2.87
2019-03-16T12:14:27.324Z,8.90
2019-03-16T12:16:56.774Z,5.57
2019-03-16T12:19:26.060Z,1.47
2019-03-16T12:21:55.356Z,1.83
2019-03-16T12:24:24.646Z,5.63
2019-03-16T12:26:54.017Z,3.63
2019-03-16T12:29:33.616Z,2.47
2019-03-16T12:31:54.357Z,3.23
2019-03-16T12:34:23.666Z,2.50
2019-03-16T12:36:53.077Z,1.50
2019-03-16T12:39:22.925Z,1.43
2019-03-16T12:41:52.534Z,1.97
2019-03-16T12:44:21.829Z,1.13
2019-03-16T12:46:51.117Z,1.50
2019-03-16T12:49:20.440Z,1.00
2019-03-16T12:51:49.784Z,1.50
2019-03-16T12:54:19.151Z,2.20
2019-03-16T12:56:48.457Z,1.40
2019-03-16T12:59:18.081Z,1.47
2019-03-16T13:01:47.379Z,1.53
2019-03-16T13:04:17.165Z,1.43
2019-03-16T13:06:46.452Z,1.60
2019-03-16T13:09:15.878Z,1.70
2019-03-16T13:11:49.762Z,1.60
2019-03-16T13:14:19.127Z,2.77
2019-03-16T13:16:48.746Z,1.13
2019-03-16T13:19:18.054Z,1.07
2019-03-16T13:21:47.714Z,1.17
2019-03-16T13:24:19.059Z,1.43
2019-03-16T13:26:49.173Z,1.17
2019-03-16T13:29:18.513Z,1.70
2019-03-16T13:31:48.529Z,1.67
2019-03-16T13:34:17.820Z,1.20
2019-03-16T13:36:47.101Z,1.70
2019-03-16T13:39:16.331Z,1.33
2019-03-16T13:41:45.646Z,1.33
2019-03-16T13:44:15.003Z,1.27
2019-03-16T13:46:44.227Z,2.30
2019-03-16T13:49:13.574Z,1.57
2019-03-16T13:51:43.002Z,1.30
2019-03-16T13:54:12.321Z,1.17
2019-03-16T13:56:41.985Z,2.43
2019-03-16T13:59:11.344Z,1.40
2019-03-16T14:01:40.981Z,1.63
2019-03-16T14:04:10.283Z,1.73
2019-03-16T14:06:39.642Z,1.47
2019-03-16T14:09:09.205Z,1.43
2019-03-16T14:11:41.191Z,1.57
2019-03-16T14:14:09.598Z,1.70
2019-03-16T14:16:39.046Z,1.37
2019-03-16T14:19:08.430Z,1.63
2019-03-16T14:21:37.961Z,1.47
2019-03-16T14:24:07.219Z,1.80
2019-03-16T14:26:36.595Z,1.60
2019-03-16T14:29:06.284Z,2.30
2019-03-16T14:31:35.651Z,1.37
2019-03-16T14:34:05.006Z,1.70
2019-03-16T14:36:34.391Z,1.50
2019-03-16T14:39:05.492Z,1.60
2019-03-16T14:41:34.810Z,1.87
2019-03-16T14:44:04.617Z,1.80
2019-03-16T14:46:33.935Z,2.20
2019-03-16T14:49:03.219Z,2.13
2019-03-16T14:51:32.937Z,2.07
2019-03-16T14:54:02.339Z,8.97
2019-03-16T14:56:31.651Z,2.77
2019-03-16T14:59:00.970Z,7.93
2019-03-16T15:01:30.353Z,2.30
2019-03-16T15:03:59.671Z,2.30
2019-03-16T15:06:28.937Z,2.60
2019-03-16T15:08:58.633Z,1.90
2019-03-16T15:11:27.985Z,2.43
2019-03-16T15:13:57.435Z,2.83
2019-03-16T15:16:27.120Z,2.50
2019-03-16T15:18:56.425Z,2.50
2019-03-16T15:21:25.749Z,2.40
2019-03-16T15:23:55.030Z,2.27
2019-03-16T15:26:25.677Z,2.17
2019-03-16T15:28:55.414Z,2.20
2019-03-16T15:31:24.802Z,2.00
2019-03-16T15:33:54.170Z,2.00
2019-03-16T15:36:23.548Z,2.03
2019-03-16T15:38:52.916Z,2.47
2019-03-16T15:41:22.203Z,2.30
2019-03-16T15:43:51.577Z,2.60
2019-03-16T15:46:21.207Z,2.63
2019-03-16T15:48:50.596Z,2.27
2019-03-16T15:51:19.967Z,2.60
2019-03-16T15:53:49.317Z,2.30
2019-03-16T15:56:18.644Z,2.00
2019-03-16T15:58:47.981Z,2.37
2019-03-16T16:01:17.939Z,2.73
2019-03-16T16:03:47.243Z,2.30
2019-03-16T16:06:16.626Z,2.30
2019-03-16T16:08:45.929Z,2.77
2019-03-16T16:11:15.224Z,2.70
2019-03-16T16:13:44.590Z,2.17
2019-03-16T16:16:13.982Z,1.80
2019-03-16T16:18:43.299Z,1.80
2019-03-16T16:21:12.650Z,2.80
2019-03-16T16:23:41.939Z,1.90
2019-03-16T16:26:11.365Z,2.77
2019-03-16T16:28:40.697Z,2.33
2019-03-16T16:31:16.194Z,2.10
2019-03-16T16:33:40.956Z,2.40
2019-03-16T16:36:10.280Z,2.33
2019-03-16T16:38:39.636Z,2.50
2019-03-16T16:41:08.929Z,3.13
2019-03-16T16:43:38.263Z,2.67
2019-03-16T16:46:07.547Z,2.30
2019-03-16T16:48:36.891Z,2.60
2019-03-16T16:51:06.157Z,3.43
2019-03-16T16:53:35.485Z,4.57
2019-03-16T16:56:04.774Z,3.27
2019-03-16T16:58:34.149Z,2.97
2019-03-16T17:01:03.486Z,3.40
2019-03-16T17:03:32.815Z,3.33
2019-03-16T17:06:02.150Z,3.50
2019-03-16T17:08:31.853Z,3.67
2019-03-16T17:11:01.206Z,4.20
2019-03-16T17:13:30.613Z,4.80
2019-03-16T17:15:59.957Z,3.43
2019-03-16T17:18:29.252Z,3.37
2019-03-16T17:20:58.710Z,4.17
2019-03-16T17:23:28.073Z,3.80
2019-03-16T17:25:57.431Z,4.40
2019-03-16T17:28:26.843Z,3.57
2019-03-16T17:30:57.817Z,4.27
2019-03-16T17:33:27.151Z,4.13
2019-03-16T17:35:57.298Z,4.43
2019-03-16T17:38:26.608Z,4.53
2019-03-16T17:40:55.884Z,4.20
2019-03-16T17:43:25.113Z,4.07
2019-03-16T17:45:54.463Z,4.23
2019-03-16T17:48:23.863Z,4.53
2019-03-16T17:50:53.167Z,4.40
2019-03-16T17:53:22.534Z,3.53
2019-03-16T17:55:51.910Z,9.27
2019-03-16T17:58:21.293Z,4.30
2019-03-16T18:00:50.596Z,9.00
2019-03-16T18:03:20.194Z,10.93
2019-03-16T18:05:49.556Z,17.67
2019-03-16T18:08:19.133Z,6.13
2019-03-16T18:10:48.444Z,7.70
2019-03-16T18:13:17.741Z,5.53
2019-03-16T18:15:47.045Z,8.93
2019-03-16T18:18:16.240Z,4.57
2019-03-16T18:20:45.644Z,5.30
2019-03-16T18:23:14.974Z,4.40
2019-03-16T18:25:44.257Z,3.53
2019-03-16T18:28:13.584Z,4.13
2019-03-16T18:30:42.926Z,4.50
2019-03-16T18:33:12.229Z,3.77
2019-03-16T18:35:41.624Z,3.40
2019-03-16T18:38:10.931Z,4.03
2019-03-16T18:40:40.202Z,3.83
2019-03-16T18:43:09.593Z,3.97
2019-03-16T18:45:41.089Z,4.33
2019-03-16T18:48:10.497Z,3.77
2019-03-16T18:50:39.811Z,3.30
2019-03-16T18:53:09.220Z,4.40
2019-03-16T18:55:38.542Z,4.53
2019-03-16T18:58:07.875Z,4.23
2019-03-16T19:00:37.084Z,3.97
2019-03-16T19:03:06.269Z,4.77
2019-03-16T19:05:37.214Z,4.60
2019-03-16T19:08:06.569Z,4.20
2019-03-16T19:10:35.860Z,3.73
2019-03-16T19:13:05.227Z,4.50
2019-03-16T19:15:34.577Z,4.00
2019-03-16T19:18:03.890Z,3.90
2019-03-16T19:20:33.206Z,3.73
2019-03-16T19:23:02.721Z,3.90
2019-03-16T19:25:32.227Z,4.30
2019-03-16T19:28:02.009Z,4.70
2019-03-16T19:30:31.319Z,4.80
2019-03-16T19:33:01.050Z,4.03
2019-03-16T19:35:30.397Z,4.13
2019-03-16T19:37:59.774Z,3.90
2019-03-16T19:40:29.077Z,4.00
2019-03-16T19:42:58.346Z,3.30
2019-03-16T19:45:27.750Z,4.10
2019-03-16T19:47:57.131Z,3.50
2019-03-16T19:50:26.479Z,3.60
2019-03-16T19:52:55.835Z,4.37
2019-03-16T19:55:25.152Z,3.53
2019-03-16T19:57:54.548Z,3.73
2019-03-16T20:00:23.897Z,3.30
2019-03-16T20:02:53.141Z,4.40
2019-03-16T20:05:22.468Z,2.80
2019-03-16T20:07:51.788Z,2.77
2019-03-16T20:10:21.147Z,3.10
2019-03-16T20:12:53.364Z,3.50
2019-03-16T20:15:23.085Z,3.67
2019-03-16T20:17:52.478Z,3.80
2019-03-16T20:20:21.787Z,3.50
2019-03-16T20:22:51.078Z,3.33
2019-03-16T20:25:20.468Z,3.70
2019-03-16T20:27:49.783Z,3.73
2019-03-16T20:30:26.464Z,3.60
2019-03-16T20:33:02.626Z,4.10
2019-03-16T20:35:21.615Z,3.37
2019-03-16T20:37:50.923Z,3.57
2019-03-16T20:40:20.199Z,3.20
2019-03-16T20:42:49.510Z,3.73
2019-03-16T20:45:20.222Z,3.50
2019-03-16T20:47:49.760Z,3.60
2019-03-16T20:50:19.121Z,3.07
2019-03-16T20:52:48.484Z,3.90
2019-03-16T20:55:19.603Z,3.43
2019-03-16T20:57:48.950Z,3.87
2019-03-16T21:00:18.289Z,2.70
2019-03-16T21:02:47.640Z,3.10
2019-03-16T21:05:17.009Z,3.10
2019-03-16T21:07:46.396Z,3.70
2019-03-16T21:10:15.835Z,2.63
2019-03-16T21:12:45.155Z,2.73
2019-03-16T21:15:14.597Z,2.70
2019-03-16T21:17:44.013Z,2.83
2019-03-16T21:20:13.753Z,2.07
2019-03-16T21:22:43.051Z,3.10
2019-03-16T21:25:12.396Z,2.50
2019-03-16T21:27:41.680Z,2.67
2019-03-16T21:30:13.129Z,3.20
2019-03-16T21:32:42.449Z,2.47
2019-03-16T21:35:11.819Z,2.17
2019-03-16T21:37:41.159Z,2.33
2019-03-16T21:40:10.808Z,2.37
2019-03-16T21:42:40.123Z,2.50
2019-03-16T21:45:10.354Z,2.87
2019-03-16T21:47:39.776Z,2.50
2019-03-16T21:50:09.611Z,3.20
2019-03-16T21:52:38.926Z,2.93
2019-03-16T21:55:08.736Z,2.50
2019-03-16T21:57:38.105Z,3.20
2019-03-16T22:00:09.509Z,2.87
2019-03-16T22:02:38.856Z,2.50
2019-03-16T22:05:08.607Z,2.47
2019-03-16T22:07:38.046Z,2.60
2019-03-16T22:10:07.581Z,3.00
2019-03-16T22:12:36.918Z,3.90
2019-03-16T22:15:07.076Z,2.20
2019-03-16T22:17:36.780Z,3.40
2019-03-16T22:20:07.462Z,3.07
2019-03-16T22:22:36.782Z,2.90
2019-03-16T22:25:06.484Z,2.60
2019-03-16T22:27:35.792Z,2.73
2019-03-16T22:30:06.013Z,2.50
2019-03-16T22:32:35.480Z,3.00
2019-03-16T22:35:05.395Z,3.20
2019-03-16T22:37:34.770Z,3.53
2019-03-16T22:40:04.183Z,3.13
2019-03-16T22:42:33.583Z,3.17
2019-03-16T22:45:03.044Z,2.57
2019-03-16T22:47:32.419Z,2.27
2019-03-16T22:50:01.750Z,2.60
2019-03-16T22:52:31.128Z,2.33
2019-03-16T22:55:00.531Z,2.97
2019-03-16T22:57:30.034Z,3.27
2019-03-16T22:59:59.569Z,2.03
2019-03-16T23:02:28.837Z,2.70
2019-03-16T23:04:58.119Z,2.53
2019-03-16T23:07:27.503Z,2.50
2019-03-16T23:09:56.917Z,2.67
2019-03-16T23:12:26.219Z,3.00
2019-03-16T23:14:55.543Z,2.20
2019-03-16T23:17:24.842Z,2.20
2019-03-16T23:19:54.152Z,3.43
2019-03-16T23:22:23.546Z,2.77
2019-03-16T23:24:52.852Z,2.33
2019-03-16T23:27:22.169Z,3.00
2019-03-16T23:29:51.453Z,2.37
2019-03-16T23:32:20.808Z,2.70
2019-03-16T23:34:50.121Z,2.50
2019-03-16T23:37:19.449Z,2.77
2019-03-16T23:39:49.121Z,2.60
2019-03-16T23:42:18.536Z,2.37
2019-03-16T23:44:47.829Z,3.10
2019-03-16T23:47:17.099Z,3.33
2019-03-16T23:49:46.441Z,2.37
2019-03-16T23:52:15.788Z,3.10
2019-03-16T23:54:45.078Z,3.37
2019-03-16T23:57:14.524Z,2.80
2019-03-16T23:59:43.798Z,2.40
